Ana Sayfa
METAR-TAF:

METAR-TAF

Havaalanları :

Abuja, Nijerya

Enlem: 9-00-24N, Boylam: 7-15-47E, yükseklik: 342 m

Güncel hava durumu gözlemi

Rapor saat 00:00 UTC de 42 dakika önce yapıldı.
Rüzgar kuzey/kuzeydoğudan 5 kt
Sıcaklık 19°C
Nem 49%
Basınç 1015 hPa
Görüş mesafesi: 8000 m

METAR: DNAA 270000Z 02005KT 8000 NSC 19/08 Q1015 NOSIG

Saat: 01:42 (00:42 UTC)

Tahmin

Rapor saat 23:00 UTC de 1 saat ve 42 dakika önce yapıldı.
Ayın 27'si saat 00 UTC'den ayın 28'si saat 06 UTC'ye kadar geçerli Tahmin
Rüzgar kuzeydoğudan 8 kt
Görüş mesafesi: 8000 m
Olasılık 30% :
Geçici
ayın 27'si saat 04 UTC'den ayın 27'si saat 09 UTC'ye kadar
Görüş mesafesi: 5000 m
Toz Pusu

TAF: DNAA 262300Z 2700/2806 04008KT 8000 NSC PROB30 TEMPO 2704/2709 5000 HZ

4.000'den fazla havaalanı için hava durumu gözlemleri ve tahminleri (METAR ve TAF raporları).

Kullanılabilir istasyonlar harita üzerinde sarı ve kırmızı noktalarla gösterilir.

İstasyonun adını görmek için fareyi noktanın üzerinde gezdirin.

Sonrasında hava gözlem ve tahminlerini görmek için tıklayın.

Haritayı değiştirmek için: yaklaştırmak için siyah artı işaretli yeşil düğmeye ve uzaklaştırmak için de eksi işaretli düğmeye hızla tıklayın; bitişik haritalar için yeşil okları kullanın.


METAR-TAF: